createdAt,value
2019-02-07T00:02:29.770Z,58.67
2019-02-07T00:05:00.438Z,58.87
2019-02-07T00:07:30.481Z,59.03
2019-02-07T00:10:00.517Z,59.01
2019-02-07T00:12:32.480Z,59.54
2019-02-07T00:15:04.736Z,59.84
2019-02-07T00:17:35.990Z,59.79
2019-02-07T00:20:08.383Z,59.67
2019-02-07T00:22:39.801Z,59.67
2019-02-07T00:25:10.518Z,59.78
2019-02-07T00:27:40.697Z,59.84
2019-02-07T00:30:13.293Z,59.97
2019-02-07T00:32:43.304Z,60.11
2019-02-07T00:35:13.715Z,60.12
2019-02-07T00:37:44.588Z,60.28
2019-02-07T00:40:15.740Z,60.55
2019-02-07T00:42:46.466Z,60.89
2019-02-07T00:45:16.835Z,60.82
2019-02-07T00:47:46.914Z,60.88
2019-02-07T00:50:16.945Z,60.98
2019-02-07T00:52:47.098Z,60.99
2019-02-07T00:55:17.482Z,60.98
2019-02-07T00:57:47.627Z,61.21
2019-02-07T01:00:20.790Z,61.26
2019-02-07T01:02:51.153Z,61.27
2019-02-07T01:05:22.314Z,61.35
2019-02-07T01:07:52.733Z,61.40
2019-02-07T01:10:24.861Z,61.57
2019-02-07T01:12:55.462Z,61.67
2019-02-07T01:15:26.113Z,61.92
2019-02-07T01:17:56.118Z,62.02
2019-02-07T01:20:26.348Z,62.07
2019-02-07T01:22:56.726Z,62.17
2019-02-07T01:25:26.794Z,62.27
2019-02-07T01:27:57.363Z,62.41
2019-02-07T01:30:27.450Z,62.53
2019-02-07T01:32:57.834Z,62.68
2019-02-07T01:35:28.422Z,62.62
2019-02-07T01:37:58.456Z,62.54
2019-02-07T01:40:28.467Z,62.32
2019-02-07T01:42:58.591Z,62.02
2019-02-07T01:45:28.602Z,61.67
2019-02-07T01:47:58.946Z,61.41
2019-02-07T01:50:29.113Z,61.36
2019-02-07T01:52:58.976Z,61.17
2019-02-07T01:55:29.181Z,60.94
2019-02-07T01:58:00.240Z,60.83
2019-02-07T02:00:30.575Z,60.57
2019-02-07T02:03:00.792Z,60.42
2019-02-07T02:05:31.029Z,60.25
2019-02-07T02:08:01.445Z,60.02
2019-02-07T02:10:31.555Z,59.85
2019-02-07T02:13:01.639Z,59.65
2019-02-07T02:15:31.682Z,59.50
2019-02-07T02:18:01.837Z,59.37
2019-02-07T02:20:32.222Z,59.31
2019-02-07T02:23:02.770Z,59.36
2019-02-07T02:25:32.694Z,59.20
2019-02-07T02:28:02.998Z,59.06
2019-02-07T02:30:35.118Z,59.08
2019-02-07T02:33:06.060Z,58.91
2019-02-07T02:35:36.279Z,58.97
2019-02-07T02:38:06.807Z,58.85
2019-02-07T02:40:36.972Z,58.72
2019-02-07T02:43:07.403Z,58.60
2019-02-07T02:45:38.088Z,58.33
2019-02-07T02:48:08.264Z,58.39
2019-02-07T02:50:40.506Z,58.27
2019-02-07T02:53:12.979Z,58.09
2019-02-07T02:55:44.707Z,57.89
2019-02-07T02:58:15.130Z,57.77
2019-02-07T03:01:13.527Z,57.73
2019-02-07T03:03:53.039Z,57.73
2019-02-07T03:06:42.348Z,57.75
2019-02-07T03:09:37.780Z,57.68
2019-02-07T03:12:36.090Z,57.65
2019-02-07T03:15:33.291Z,57.66
2019-02-07T03:18:20.764Z,57.82
2019-02-07T03:21:10.035Z,58.10
2019-02-07T03:24:01.822Z,58.40
2019-02-07T03:26:53.790Z,58.64
2019-02-07T03:29:42.976Z,58.73
2019-02-07T03:32:29.196Z,59.01
2019-02-07T03:35:17.994Z,59.04
2019-02-07T03:37:58.477Z,59.38
2019-02-07T03:40:45.885Z,59.54
2019-02-07T03:43:37.911Z,59.58
2019-02-07T03:46:34.816Z,59.56
2019-02-07T03:49:30.030Z,59.55
2019-02-07T03:52:36.755Z,59.51
2019-02-07T03:55:25.869Z,59.45
2019-02-07T03:58:13.445Z,59.55
2019-02-07T04:01:07.256Z,59.61
2019-02-07T04:04:01.647Z,59.62
2019-02-07T04:06:49.130Z,59.89
2019-02-07T04:09:47.195Z,60.23
2019-02-07T04:12:29.476Z,60.46
2019-02-07T04:15:16.602Z,60.31
2019-02-07T04:18:04.538Z,60.36
2019-02-07T04:20:44.699Z,60.44
2019-02-07T04:23:40.673Z,60.51
2019-02-07T04:26:35.847Z,60.51
2019-02-07T04:29:21.916Z,60.47
2019-02-07T04:32:08.030Z,60.47
2019-02-07T04:34:49.234Z,60.42
2019-02-07T04:37:38.089Z,60.41
2019-02-07T04:40:34.602Z,60.45
2019-02-07T04:43:21.671Z,60.53
2019-02-07T04:46:26.644Z,60.56
2019-02-07T04:49:13.711Z,60.68
2019-02-07T04:52:08.815Z,60.65
2019-02-07T04:54:54.640Z,60.61
2019-02-07T04:57:40.515Z,60.54
2019-02-07T05:00:22.842Z,60.43
2019-02-07T05:03:11.030Z,60.26
2019-02-07T05:06:00.461Z,60.27
2019-02-07T05:09:08.202Z,60.31
2019-02-07T05:11:52.002Z,59.75
2019-02-07T05:14:37.336Z,59.49
2019-02-07T05:17:37.014Z,59.50
2019-02-07T05:20:36.738Z,59.31
2019-02-07T05:23:24.134Z,59.14
2019-02-07T05:26:12.063Z,58.98
2019-02-07T05:28:59.673Z,58.81
2019-02-07T05:31:51.788Z,58.77
2019-02-07T05:34:39.037Z,58.59
2019-02-07T05:37:26.222Z,58.57
2019-02-07T05:40:06.690Z,58.39
2019-02-07T05:42:54.303Z,58.27
2019-02-07T05:45:49.432Z,58.32
2019-02-07T05:48:34.422Z,58.21
2019-02-07T05:51:21.161Z,58.25
2019-02-07T05:54:03.161Z,58.29
2019-02-07T05:56:54.200Z,58.26
2019-02-07T05:59:42.637Z,58.13
2019-02-07T06:02:40.727Z,57.46
2019-02-07T06:05:22.781Z,57.27
2019-02-07T06:08:10.529Z,57.06
2019-02-07T06:11:02.719Z,56.58
2019-02-07T06:13:50.829Z,55.76
2019-02-07T06:17:02.354Z,55.59
2019-02-07T06:19:57.648Z,55.62
2019-02-07T06:22:48.167Z,55.77
2019-02-07T06:25:33.737Z,56.52
2019-02-07T06:28:27.622Z,56.87
2019-02-07T06:31:10.173Z,57.38
2019-02-07T06:33:58.173Z,57.81
2019-02-07T06:36:56.486Z,58.21
2019-02-07T06:39:37.325Z,58.57
2019-02-07T06:42:19.279Z,58.74
2019-02-07T06:45:08.830Z,58.91
2019-02-07T06:47:57.815Z,59.19
2019-02-07T06:50:56.178Z,59.65
2019-02-07T06:53:50.917Z,59.79
2019-02-07T06:56:52.224Z,59.79
2019-02-07T06:59:32.938Z,59.88
2019-02-07T07:02:28.143Z,59.71
2019-02-07T07:05:17.356Z,59.75
2019-02-07T07:08:06.203Z,59.74
2019-02-07T07:10:48.079Z,59.78
2019-02-07T07:13:42.873Z,59.66
2019-02-07T07:16:30.358Z,59.66
2019-02-07T07:19:23.300Z,59.49
2019-02-07T07:22:15.800Z,59.33
2019-02-07T07:25:08.964Z,59.23
2019-02-07T07:28:10.310Z,58.97
2019-02-07T07:31:09.550Z,59.16
2019-02-07T07:34:01.026Z,59.25
2019-02-07T07:37:03.044Z,59.08
2019-02-07T07:39:51.203Z,58.95
2019-02-07T07:42:44.235Z,58.96
2019-02-07T07:45:35.962Z,58.78
2019-02-07T07:48:24.194Z,58.59
2019-02-07T07:51:06.473Z,58.58
2019-02-07T07:53:55.829Z,58.49
2019-02-07T07:56:44.568Z,58.49
2019-02-07T07:59:37.579Z,58.57
2019-02-07T08:02:38.804Z,58.48
2019-02-07T08:05:30.005Z,58.38
2019-02-07T08:08:14.329Z,58.24
2019-02-07T08:11:07.480Z,58.01
2019-02-07T08:14:11.214Z,57.77
2019-02-07T08:17:01.016Z,57.59
2019-02-07T08:19:53.028Z,57.32
2019-02-07T08:22:41.121Z,57.22
2019-02-07T08:25:45.308Z,56.40
2019-02-07T08:28:30.863Z,56.31
2019-02-07T08:31:21.290Z,56.58
2019-02-07T08:34:11.514Z,56.67
2019-02-07T08:37:18.284Z,56.62
2019-02-07T08:40:07.393Z,56.66
2019-02-07T08:42:56.788Z,56.44
2019-02-07T08:45:44.372Z,55.86
2019-02-07T08:48:38.397Z,55.52
2019-02-07T08:51:27.687Z,55.23
2019-02-07T08:54:19.775Z,55.09
2019-02-07T08:57:09.004Z,55.11
2019-02-07T08:59:56.450Z,54.93
2019-02-07T09:02:51.510Z,54.58
2019-02-07T09:05:33.773Z,53.86
2019-02-07T09:08:38.143Z,53.26
2019-02-07T09:11:25.322Z,52.90
2019-02-07T09:14:15.013Z,52.61
2019-02-07T09:17:09.839Z,52.37
2019-02-07T09:19:57.424Z,51.96
2019-02-07T09:22:50.611Z,50.53
2019-02-07T09:25:39.466Z,50.53
2019-02-07T09:28:28.333Z,50.53
2019-02-07T09:31:16.262Z,50.22
2019-02-07T09:34:03.810Z,49.70
2019-02-07T09:36:53.141Z,49.36
2019-02-07T09:39:57.279Z,49.36
2019-02-07T09:42:49.846Z,49.33
2019-02-07T09:45:39.393Z,48.53
2019-02-07T09:48:28.838Z,48.19
2019-02-07T09:51:20.463Z,46.88
2019-02-07T09:54:08.718Z,45.45
2019-02-07T09:57:09.432Z,44.87
2019-02-07T10:00:16.267Z,43.73
2019-02-07T10:03:13.940Z,41.93
2019-02-07T10:06:09.136Z,41.93
2019-02-07T10:08:53.936Z,41.21
2019-02-07T10:11:46.240Z,41.05
2019-02-07T10:14:31.143Z,40.08
2019-02-07T10:17:12.020Z,39.45
2019-02-07T10:20:06.795Z,38.95
2019-02-07T10:22:59.191Z,38.68
2019-02-07T10:25:48.029Z,38.86
2019-02-07T10:28:37.357Z,38.54
2019-02-07T10:31:21.613Z,38.56
2019-02-07T10:34:18.727Z,38.65
2019-02-07T10:37:07.301Z,38.60
2019-02-07T10:40:14.174Z,38.13
2019-02-07T10:43:14.973Z,37.87
2019-02-07T10:46:03.033Z,37.44
2019-02-07T10:49:03.962Z,36.83
2019-02-07T10:51:52.084Z,36.42
2019-02-07T10:54:49.624Z,36.40
2019-02-07T10:57:41.895Z,36.54
2019-02-07T11:00:38.520Z,36.45
2019-02-07T11:03:26.526Z,36.29
2019-02-07T11:06:13.049Z,36.55
2019-02-07T11:09:02.278Z,37.08
2019-02-07T11:11:53.881Z,37.41
2019-02-07T11:14:54.713Z,38.97
2019-02-07T11:17:58.984Z,40.57
2019-02-07T11:20:50.807Z,41.37
2019-02-07T11:23:45.692Z,43.97
2019-02-07T11:26:37.384Z,45.99
2019-02-07T11:29:38.326Z,47.61
2019-02-07T11:32:27.787Z,49.52
2019-02-07T11:35:15.620Z,50.08
2019-02-07T11:38:09.191Z,50.63
2019-02-07T11:40:56.620Z,51.63
2019-02-07T11:43:54.718Z,52.71
2019-02-07T11:46:42.198Z,53.41
2019-02-07T11:49:31.622Z,53.49
2019-02-07T11:52:26.268Z,53.87
2019-02-07T11:55:15.980Z,53.98
2019-02-07T11:58:08.065Z,54.07
2019-02-07T12:01:01.792Z,55.10
2019-02-07T12:03:55.348Z,55.78
2019-02-07T12:06:43.467Z,55.96
2019-02-07T12:09:31.072Z,56.31
2019-02-07T12:12:35.356Z,56.92
2019-02-07T12:15:36.970Z,57.43
2019-02-07T12:18:33.512Z,57.68
2019-02-07T12:21:35.936Z,57.84
2019-02-07T12:24:25.292Z,57.54
2019-02-07T12:27:20.902Z,57.96
2019-02-07T12:30:08.614Z,58.31
2019-02-07T12:32:49.021Z,58.60
2019-02-07T12:35:37.062Z,58.70
2019-02-07T12:38:30.709Z,58.76
2019-02-07T12:41:23.329Z,58.53
2019-02-07T12:44:08.756Z,58.62
2019-02-07T12:47:10.882Z,58.46
2019-02-07T12:50:15.579Z,58.18
2019-02-07T12:52:53.876Z,58.03
2019-02-07T12:55:51.654Z,58.54
2019-02-07T12:58:45.635Z,58.18
2019-02-07T13:01:34.788Z,59.23
2019-02-07T13:04:27.488Z,59.29
2019-02-07T13:07:28.450Z,59.12
2019-02-07T13:10:14.403Z,59.86
2019-02-07T13:12:58.544Z,60.43
2019-02-07T13:15:57.126Z,59.64
2019-02-07T13:18:47.093Z,58.97
2019-02-07T13:21:42.282Z,59.33
2019-02-07T13:24:34.930Z,59.29
2019-02-07T13:27:24.574Z,59.26
2019-02-07T13:30:26.586Z,59.61
2019-02-07T13:33:13.001Z,60.27
2019-02-07T13:36:17.916Z,60.06
2019-02-07T13:39:14.254Z,60.06
2019-02-07T13:42:00.911Z,59.97
2019-02-07T13:45:05.286Z,59.93
2019-02-07T13:47:57.433Z,60.21
2019-02-07T13:50:50.129Z,59.90
2019-02-07T13:53:37.452Z,59.72
2019-02-07T13:56:29.463Z,59.80
2019-02-07T13:59:26.104Z,60.05
2019-02-07T14:02:14.413Z,60.06
2019-02-07T14:05:12.625Z,59.57
2019-02-07T14:08:13.716Z,59.15
2019-02-07T14:11:03.214Z,59.18
2019-02-07T14:13:57.095Z,59.16
2019-02-07T14:16:47.812Z,58.93
2019-02-07T14:19:38.779Z,58.86
2019-02-07T14:22:26.945Z,58.96
2019-02-07T14:25:17.698Z,58.97
2019-02-07T14:28:05.131Z,59.15
2019-02-07T14:31:06.214Z,59.64
2019-02-07T14:33:54.928Z,59.86
2019-02-07T14:36:47.089Z,59.95
2019-02-07T14:39:36.299Z,60.42
2019-02-07T14:42:26.347Z,61.13
2019-02-07T14:45:13.759Z,61.78
2019-02-07T14:47:45.278Z,62.01
2019-02-07T14:50:17.215Z,62.01
2019-02-07T14:52:47.437Z,61.60
2019-02-07T14:55:18.389Z,62.47
2019-02-07T14:57:48.520Z,62.47
2019-02-07T15:00:21.819Z,62.44
2019-02-07T15:02:53.560Z,62.89
2019-02-07T15:05:24.043Z,62.89
2019-02-07T15:07:54.589Z,62.53
2019-02-07T15:10:26.520Z,62.79
2019-02-07T15:12:56.830Z,63.54
2019-02-07T15:15:27.288Z,63.54
2019-02-07T15:18:03.068Z,63.29
2019-02-07T15:20:33.299Z,63.82
2019-02-07T15:23:04.763Z,63.13
2019-02-07T15:25:35.501Z,63.84
2019-02-07T15:28:07.672Z,63.84
2019-02-07T15:30:38.166Z,64.11
2019-02-07T15:33:09.103Z,64.11
2019-02-07T15:35:43.029Z,64.40
2019-02-07T15:38:13.724Z,64.37
2019-02-07T15:40:46.350Z,64.15
2019-02-07T15:43:17.443Z,65.65
2019-02-07T15:45:48.043Z,65.72
2019-02-07T15:48:19.740Z,65.72
2019-02-07T15:50:51.279Z,65.62
2019-02-07T15:53:23.449Z,65.92
2019-02-07T15:55:54.364Z,66.14
2019-02-07T15:58:43.676Z,66.14
2019-02-07T16:01:33.599Z,66.11
2019-02-07T16:04:10.414Z,66.71
2019-02-07T16:06:41.303Z,67.05
2019-02-07T16:09:15.041Z,67.10
2019-02-07T16:11:45.475Z,67.60
2019-02-07T16:14:17.331Z,68.01
2019-02-07T16:16:52.391Z,68.32
2019-02-07T16:19:27.142Z,68.58
2019-02-07T16:22:08.624Z,68.56
2019-02-07T16:24:41.103Z,68.28
2019-02-07T16:27:12.623Z,68.40
2019-02-07T16:29:45.772Z,68.46
2019-02-07T16:32:16.688Z,68.12
2019-02-07T16:34:55.522Z,68.00
2019-02-07T16:37:27.578Z,68.27
2019-02-07T16:40:06.250Z,68.37
2019-02-07T16:42:43.215Z,68.34
2019-02-07T16:45:17.540Z,68.18
2019-02-07T16:47:51.225Z,68.16
2019-02-07T16:50:26.110Z,68.14
2019-02-07T16:53:11.053Z,68.00
2019-02-07T16:55:45.191Z,68.42
2019-02-07T16:58:21.301Z,68.64
2019-02-07T17:00:57.083Z,69.24
2019-02-07T17:03:31.609Z,69.51
2019-02-07T17:06:04.779Z,69.38
2019-02-07T17:08:37.184Z,69.05
2019-02-07T17:11:08.627Z,68.91
2019-02-07T17:13:42.365Z,68.73
2019-02-07T17:16:13.746Z,69.03
2019-02-07T17:18:47.812Z,68.79
2019-02-07T17:21:22.684Z,68.63
2019-02-07T17:23:54.958Z,68.63
2019-02-07T17:26:27.323Z,68.59
2019-02-07T17:29:00.219Z,68.62
2019-02-07T17:31:31.893Z,68.71
2019-02-07T17:34:02.652Z,68.76
2019-02-07T17:36:32.977Z,68.91
2019-02-07T17:39:07.380Z,68.73
2019-02-07T17:41:38.703Z,68.64
2019-02-07T17:44:13.986Z,68.50
2019-02-07T17:46:49.855Z,68.44
2019-02-07T17:49:20.667Z,68.49
2019-02-07T17:51:50.836Z,68.26
2019-02-07T17:54:22.766Z,68.28
2019-02-07T17:56:55.290Z,68.03
2019-02-07T17:59:26.462Z,67.84
2019-02-07T18:01:59.892Z,67.71
2019-02-07T18:04:31.023Z,67.72
2019-02-07T18:07:02.290Z,68.65
2019-02-07T18:09:33.441Z,68.79
2019-02-07T18:12:04.443Z,68.58
2019-02-07T18:14:34.911Z,68.26
2019-02-07T18:17:06.127Z,67.95
2019-02-07T18:19:37.431Z,67.87
2019-02-07T18:22:10.541Z,67.98
2019-02-07T18:24:41.518Z,68.14
2019-02-07T18:27:12.922Z,68.38
2019-02-07T18:29:43.448Z,68.54
2019-02-07T18:32:17.004Z,68.75
2019-02-07T18:34:47.194Z,69.51
2019-02-07T18:37:18.775Z,69.70
2019-02-07T18:39:54.779Z,69.61
2019-02-07T18:42:27.022Z,69.57
2019-02-07T18:45:04.796Z,69.60
2019-02-07T18:47:35.435Z,69.63
2019-02-07T18:50:27.340Z,69.70
2019-02-07T18:52:59.718Z,69.62
2019-02-07T18:55:35.498Z,69.89
2019-02-07T18:58:32.333Z,69.96
2019-02-07T19:01:03.251Z,70.06
2019-02-07T19:03:45.100Z,70.27
2019-02-07T19:06:17.841Z,70.20
2019-02-07T19:08:50.959Z,70.30
2019-02-07T19:11:22.571Z,70.22
2019-02-07T19:13:54.704Z,70.32
2019-02-07T19:16:25.248Z,70.27
2019-02-07T19:18:55.474Z,70.45
2019-02-07T19:21:25.657Z,70.49
2019-02-07T19:23:56.452Z,70.79
2019-02-07T19:26:26.920Z,70.71
2019-02-07T19:28:57.870Z,70.58
2019-02-07T19:31:29.315Z,70.57
2019-02-07T19:33:59.774Z,70.58
2019-02-07T19:36:33.312Z,70.71
2019-02-07T19:39:05.817Z,70.53
2019-02-07T19:41:36.056Z,70.55
2019-02-07T19:44:08.375Z,70.33
2019-02-07T19:46:42.542Z,70.18
2019-02-07T19:49:14.309Z,70.15
2019-02-07T19:56:40.832Z,70.10
2019-02-07T19:59:15.747Z,69.90
2019-02-07T20:01:46.391Z,69.79
2019-02-07T20:04:19.016Z,69.82
2019-02-07T20:06:49.989Z,69.85
2019-02-07T20:09:22.975Z,69.83
2019-02-07T20:11:55.312Z,69.94
2019-02-07T20:14:33.744Z,69.84
2019-02-07T20:17:06.884Z,69.81
2019-02-07T20:19:39.426Z,69.89
2019-02-07T20:22:20.371Z,70.02
2019-02-07T20:24:50.165Z,70.27
2019-02-07T20:27:24.266Z,70.35
2019-02-07T20:29:57.623Z,70.32
2019-02-07T20:32:29.105Z,70.29
2019-02-07T20:35:00.425Z,70.16
2019-02-07T20:37:32.719Z,70.20
2019-02-07T20:40:12.788Z,70.12
2019-02-07T20:42:45.423Z,70.10
2019-02-07T20:45:17.063Z,70.08
2019-02-07T20:47:47.772Z,70.19
2019-02-07T20:50:24.041Z,70.55
2019-02-07T20:52:57.933Z,70.65
2019-02-07T20:55:29.868Z,70.54
2019-02-07T20:58:00.283Z,71.01
2019-02-07T21:00:33.034Z,70.79
2019-02-07T21:03:03.628Z,70.67
2019-02-07T21:05:34.178Z,70.47
2019-02-07T21:08:07.231Z,70.37
2019-02-07T21:10:39.047Z,70.40
2019-02-07T21:13:12.128Z,70.38
2019-02-07T21:15:42.703Z,70.87
2019-02-07T21:18:12.995Z,70.98
2019-02-07T21:20:43.626Z,71.16
2019-02-07T21:23:13.792Z,71.17
2019-02-07T21:25:55.957Z,71.04
2019-02-07T21:28:26.090Z,70.96
2019-02-07T21:30:56.250Z,71.07
2019-02-07T21:33:26.385Z,71.37
2019-02-07T21:35:57.002Z,71.41
2019-02-07T21:38:28.009Z,71.54
2019-02-07T21:40:58.446Z,71.61
2019-02-07T21:43:29.586Z,71.60
2019-02-07T21:46:00.047Z,71.79
2019-02-07T21:48:30.049Z,71.99
2019-02-07T21:51:00.583Z,72.35
2019-02-07T21:53:30.676Z,72.43
2019-02-07T21:56:02.887Z,72.66
2019-02-07T21:58:32.939Z,72.62
2019-02-07T22:01:03.432Z,72.93
2019-02-07T22:03:34.920Z,72.91
2019-02-07T22:06:06.491Z,72.89
2019-02-07T22:08:37.435Z,72.90
2019-02-07T22:11:09.347Z,72.98
2019-02-07T22:13:39.452Z,73.04
2019-02-07T22:16:09.759Z,73.14
2019-02-07T22:18:39.932Z,73.53
2019-02-07T22:21:11.482Z,73.31
2019-02-07T22:23:41.539Z,73.49
2019-02-07T22:26:12.314Z,73.54
2019-02-07T22:28:42.730Z,73.61
2019-02-07T22:31:15.617Z,73.64
2019-02-07T22:33:45.999Z,73.45
2019-02-07T22:36:16.198Z,73.53
2019-02-07T22:38:46.238Z,73.73
2019-02-07T22:41:16.987Z,73.89
2019-02-07T22:43:47.207Z,73.86
2019-02-07T22:46:17.528Z,73.54
2019-02-07T22:48:48.095Z,73.30
2019-02-07T22:51:18.192Z,73.52
2019-02-07T22:53:48.397Z,73.57
2019-02-07T22:56:18.402Z,73.52
2019-02-07T22:58:48.450Z,73.54
2019-02-07T23:01:47.607Z,73.42
2019-02-07T23:04:18.700Z,73.27
2019-02-07T23:06:51.638Z,73.55
2019-02-07T23:09:23.438Z,73.54
2019-02-07T23:11:53.810Z,73.84
2019-02-07T23:14:23.839Z,73.79
2019-02-07T23:16:56.264Z,74.01
2019-02-07T23:19:26.752Z,73.95
2019-02-07T23:21:56.767Z,73.78
2019-02-07T23:24:28.947Z,73.49
2019-02-07T23:27:00.120Z,73.71
2019-02-07T23:29:30.365Z,73.43
2019-02-07T23:32:01.713Z,73.25
2019-02-07T23:34:32.346Z,73.18
2019-02-07T23:37:02.460Z,72.88
2019-02-07T23:39:32.951Z,72.67
2019-02-07T23:42:03.368Z,72.47
2019-02-07T23:44:33.632Z,72.18
2019-02-07T23:47:03.905Z,71.96
2019-02-07T23:49:34.262Z,71.79
2019-02-07T23:52:04.339Z,71.93
2019-02-07T23:54:34.590Z,72.00
2019-02-07T23:57:06.149Z,72.24
2019-02-07T23:59:36.836Z,72.46
